SBOSBO INV / EGPE
Speedbird OnlineSpeedbird Online INV / EGPE

Inverness Airport
18:05 14.4°C

Location Inverness, United Kingdom
Latitude: 57.54249954223633
Longitude: -4.047500133514404
Local Time 18:05 on 30 May 2024
UTC +1 hours (Europe/London)
METAR EGPE 301650Z 36006KT 9999 FEW034 SCT045 14/09 Q1017
TAF TAF EGPE 301353Z 3015/3024 36009KT 9999 SCT025 PROB30 TEMPO 3015/3018 7000 SHRA
Weather As Of 30 May 2024 18:05
Description Scattered clouds
Wind 11 km/h from North (360°)
Cloud Cover 40%
Precipitation Rain: none, Snow: none
Sunrise 04:29
Sunset 21:58
NOTAM 9 active NOTAM
Rotations During the last 90 days there were
129 flights from LHR
13 flights from MAN
137 flights to LHR
6 flights to SYY
Lounges Aspire Lounge, Main terminal
Web Airport Website | Wikipedia
Codes IATA: INV
ICAO: EGPE
Altitude 9 Meter / 31 Feet
Distance 723 KM / 449 Miles
from London.
Runways
RunwayLength (m)Surface
051887Asphalt
11700Asphalt
231887Asphalt
29700Asphalt
Radio
TypeDescriptionFrequency
APPAPP122.605
ATISATIS109.2
RDRRDR122.605
TWRInverness Tower118.405
TWRTWR (when TWR/APP combined)122.605
Live ATC



Support Speedbird Online

© 2017-2024 Speedbird Online